Impacts METAR Board
IDs:

KILE - Killeen/Skylark Fld, TX, US

Updated at: 0900 UTC 26 May 2019
Potential Impact None Slight Moderate High
Time 25/21Z 25/22Z 25/23Z 26/00Z 26/01Z 26/02Z 26/03Z 26/04Z 26/05Z 26/06Z 26/07Z 26/08Z 26/09Z
Temp88 87 86 86 83 81 79 77 76 74 73 73 73
Dewpt72 70 70 69 69 68 68 67 68 68 68 69 70
Altim29.99 29.98 29.97 29.97 29.96 29.97 29.99 30.01 30.01 30.02 30.02 30.02 30.02
VIS10 10 10 10 10 10 10 10 10 10 10 10 10
CIG-- -- -- -- -- -- -- -- -- -- -- 14 12
CoverSCTSCTFEWSCTCLRCLRCLRCLRCLRCLRCLRBKNOVC
FltCatVFRVFRVFRVFRVFRVFRVFRVFRVFRVFRVFRMVFRMVFR
WX--------------------------
WDir140160150150150150160160160160160160160
WSpd17 14 16 14 16 11 13 14 11 12 10 8 8
WGst22 22 22 23 -- -- 19 18 17 17 -- -- 15
Raw hourly METARs
KILE 252056Z AUTO 14017G22KT 10SM SCT040 SCT049 31/22 A2999 RMK AO2 SLP142 T03110222 58021
KILE 252156Z AUTO 16014G22KT 10SM SCT046 31/21 A2998 RMK AO2 SLP139 T03060211
KILE 252256Z AUTO 15016G22KT 10SM FEW046 30/21 A2997 RMK AO2 SLP137 T03000211
KILE 252356Z AUTO 15014G23KT 10SM SCT045 30/21 A2997 RMK AO2 SLP135 T03000206 10322 20289 56007
KILE 260056Z AUTO 15016KT 10SM CLR 28/21 A2996 RMK AO2 SLP130 T02830206
KILE 260156Z AUTO 15011KT 10SM CLR 27/20 A2997 RMK AO2 SLP134 T02720200
KILE 260256Z AUTO 16013G19KT 10SM CLR 26/20 A2999 RMK AO2 SLP141 T02610200 53007
KILE 260356Z AUTO 16014G18KT 10SM CLR 25/19 A3001 RMK AO2 SLP147 T02500194
KILE 260456Z AUTO 16011G17KT 10SM CLR 24/20 A3001 RMK AO2 SLP147 T02440200
KILE 260556Z AUTO 16012G17KT 10SM CLR 23/20 A3002 RMK AO2 SLP153 T02330200 10300 20233 403220228 51012
KILE 260656Z AUTO 16010KT 10SM CLR 23/20 A3002 RMK AO2 SLP151 T02280200
KILE 260756Z AUTO 16008KT 10SM BKN014 23/21 A3002 RMK AO2 SLP154 T02280206
KILE 260856Z AUTO 16008G15KT 10SM OVC012 23/21 A3002 RMK AO2 SLP153 T02280211 50000